Time;durP1;ratioP1;P1;durP2;ratioP2;P2;SDS_P1;SDS_P2;PMS_P1;PMS_P2;Temp;Humidity;BMP_temperature;BMP_pressure;BME280_temperature;BME280_humidity;BME280_pressure;Samples;Min_cycle;Max_cycle;Signal;HPM_P1;HPM_P2
2023/12/27 00:01:29;;;;;;;9.00;3.27;;;3.70;99.90;;;;;;5029011;28;20116;-66
2023/12/27 00:03:54;;;;;;;11.50;3.43;;;3.70;99.90;;;;;;5029699;28;20076;-67
2023/12/27 00:06:20;;;;;;;14.23;3.27;;;3.70;99.90;;;;;;5029373;28;20578;-66
2023/12/27 00:08:46;;;;;;;21.33;4.23;;;3.70;99.90;;;;;;5012537;28;20041;-66
2023/12/27 00:11:15;;;;;;;12.55;3.22;;;3.70;99.90;;;;;;5029611;28;20064;-66
2023/12/27 00:13:41;;;;;;;11.65;4.03;;;3.70;99.90;;;;;;5029437;28;20434;-67
2023/12/27 00:16:07;;;;;;;8.33;2.87;;;3.70;99.90;;;;;;5030318;28;20029;-66
2023/12/27 00:18:32;;;;;;;16.20;3.07;;;3.70;99.90;;;;;;5030300;28;20112;-66
2023/12/27 00:20:58;;;;;;;19.83;3.83;;;3.70;99.90;;;;;;5030616;28;20179;-66
2023/12/27 00:23:23;;;;;;;13.40;4.00;;;3.60;99.90;;;;;;5030423;28;20038;-66
2023/12/27 00:25:49;;;;;;;12.30;3.50;;;3.60;99.90;;;;;;5012568;28;20030;-66
2023/12/27 00:28:14;;;;;;;18.80;4.53;;;3.60;99.90;;;;;;5030181;28;20042;-67
2023/12/27 00:30:40;;;;;;;12.60;3.33;;;3.60;99.90;;;;;;5028668;28;20124;-66
2023/12/27 00:33:06;;;;;;;12.93;3.60;;;3.50;99.90;;;;;;5030542;28;20037;-66
2023/12/27 00:35:31;;;;;;;14.07;4.00;;;3.60;99.90;;;;;;5030397;28;20100;-65
2023/12/27 00:37:57;;;;;;;8.40;3.10;;;3.50;99.90;;;;;;5029785;28;20038;-66
2023/12/27 00:40:22;;;;;;;16.67;4.30;;;3.60;99.90;;;;;;5028983;28;20043;-67
2023/12/27 00:42:48;;;;;;;9.53;3.17;;;3.50;99.90;;;;;;5029171;28;20053;-66
2023/12/27 00:45:14;;;;;;;13.73;4.75;;;3.50;99.90;;;;;;5027668;28;20057;-66
2023/12/27 00:47:45;;;;;;;8.40;3.67;;;3.50;99.90;;;;;;5028431;28;20045;-66
2023/12/27 00:50:10;;;;;;;11.15;4.78;;;3.50;99.90;;;;;;5030684;28;20053;-66
2023/12/27 00:52:36;;;;;;;8.00;3.60;;;3.50;99.90;;;;;;5028709;28;20509;-66
2023/12/27 00:55:03;;;;;;;8.95;3.85;;;3.50;99.90;;;;;;5012389;28;20041;-66
2023/12/27 00:57:28;;;;;;;9.13;3.30;;;3.40;99.90;;;;;;5029559;28;20037;-65
2023/12/27 00:59:54;;;;;;;8.77;2.80;;;3.40;99.90;;;;;;5029518;28;20087;-65
2023/12/27 01:02:19;;;;;;;2.60;1.93;;;3.40;99.90;;;;;;5028398;28;20052;-67
2023/12/27 01:04:45;;;;;;;8.17;2.27;;;3.30;99.90;;;;;;5029622;28;20128;-67
2023/12/27 01:07:10;;;;;;;11.83;2.80;;;3.30;99.90;;;;;;5027555;28;20056;-66
2023/12/27 01:09:36;;;;;;;8.50;1.87;;;3.20;99.90;;;;;;5028141;28;20535;-65
2023/12/27 01:12:02;;;;;;;6.87;2.40;;;3.20;99.90;;;;;;5029549;28;20045;-67
2023/12/27 01:14:27;;;;;;;8.13;2.53;;;3.20;99.90;;;;;;5029281;28;20644;-67
2023/12/27 01:16:53;;;;;;;7.93;3.00;;;3.10;99.90;;;;;;5029675;28;20045;-67
2023/12/27 01:19:19;;;;;;;7.37;3.57;;;3.10;99.90;;;;;;5029545;28;20041;-67
2023/12/27 01:21:45;;;;;;;6.82;3.67;;;3.10;99.90;;;;;;5027935;28;20068;-66
2023/12/27 01:24:11;;;;;;;10.05;2.95;;;3.10;99.90;;;;;;5029612;28;20405;-66
2023/12/27 01:26:36;;;;;;;8.48;3.67;;;3.10;99.90;;;;;;5028040;28;20045;-66
2023/12/27 01:29:02;;;;;;;9.07;3.10;;;3.00;99.90;;;;;;5028858;28;20076;-66
2023/12/27 01:31:28;;;;;;;7.75;2.70;;;3.00;99.90;;;;;;5028184;28;20042;-66
2023/12/27 01:33:54;;;;;;;17.58;3.88;;;3.00;99.90;;;;;;5029314;28;20051;-66
2023/12/27 01:36:20;;;;;;;12.03;3.57;;;3.00;99.90;;;;;;5028240;28;20044;-67
2023/12/27 01:38:45;;;;;;;9.10;3.45;;;3.00;99.90;;;;;;5027477;28;20060;-67
2023/12/27 01:41:11;;;;;;;28.17;4.03;;;2.90;99.90;;;;;;5029385;28;20041;-67
2023/12/27 01:43:37;;;;;;;9.57;3.13;;;2.90;99.90;;;;;;5027557;28;20087;-66
2023/12/27 01:46:03;;;;;;;8.18;3.05;;;2.90;99.90;;;;;;5029965;28;20120;-66
2023/12/27 01:48:30;;;;;;;4.55;2.40;;;2.90;99.90;;;;;;5031910;28;20041;-66
2023/12/27 01:50:58;;;;;;;5.55;2.67;;;2.90;99.90;;;;;;5033599;28;20045;-66
2023/12/27 01:53:24;;;;;;;5.05;2.38;;;2.90;99.90;;;;;;5029656;28;20038;-66
2023/12/27 01:55:51;;;;;;;1.90;1.77;;;2.90;99.90;;;;;;5027995;28;20172;-68
2023/12/27 01:58:17;;;;;;;3.95;2.40;;;2.90;99.90;;;;;;5027589;28;20041;-66
2023/12/27 02:00:45;;;;;;;7.10;4.20;;;2.90;99.90;;;;;;5029092;28;20486;-66
2023/12/27 02:03:11;;;;;;;6.10;2.53;;;2.90;99.90;;;;;;5029456;28;20037;-66
2023/12/27 02:05:38;;;;;;;9.10;2.92;;;2.80;99.90;;;;;;5027596;28;20502;-66
2023/12/27 02:08:05;;;;;;;12.50;1.85;;;2.80;99.90;;;;;;5028706;28;20045;-66
2023/12/27 02:10:32;;;;;;;5.10;1.63;;;2.70;99.90;;;;;;5028513;28;20042;-66
2023/12/27 02:13:03;;;;;;;;;;;2.70;99.90;;;;;;5029156;28;20100;-65
2023/12/27 02:15:28;;;;;;;2.30;2.10;;;2.70;99.90;;;;;;5061135;28;20036;-66
2023/12/27 02:17:55;;;;;;;3.70;1.80;;;2.70;99.90;;;;;;5029243;28;20121;-65
2023/12/27 02:20:22;;;;;;;4.00;1.60;;;2.70;99.90;;;;;;5031517;28;20045;-67
2023/12/27 02:22:51;;;;;;;3.72;1.50;;;2.70;99.90;;;;;;5033054;28;20049;-65
2023/12/27 02:25:18;;;;;;;224.82;10.88;;;2.70;99.90;;;;;;5031263;28;20052;-66
2023/12/27 02:27:45;;;;;;;33.38;5.05;;;2.60;99.90;;;;;;5032250;28;20037;-66
2023/12/27 02:30:21;;;;;;;27.88;3.90;;;2.60;99.90;;;;;;5031500;28;20053;-66
2023/12/27 02:32:47;;;;;;;66.10;5.32;;;2.50;99.90;;;;;;5031768;28;20034;-66
2023/12/27 02:35:13;;;;;;;;;;;2.50;99.90;;;;;;5033145;28;20076;-66
2023/12/27 02:37:39;;;;;;;18.85;5.70;;;2.50;99.90;;;;;;5030324;28;19957;-65
2023/12/27 02:40:05;;;;;;;;;;;2.50;99.90;;;;;;5031653;28;20041;-65
2023/12/27 02:42:32;;;;;;;86.93;6.70;;;2.50;99.90;;;;;;5032448;28;19917;-66
2023/12/27 02:44:57;;;;;;;78.47;8.13;;;2.50;99.90;;;;;;5031337;28;20050;-65
2023/12/27 02:47:23;;;;;;;31.30;4.37;;;2.40;99.90;;;;;;5032059;28;20413;-66
2023/12/27 02:49:48;;;;;;;19.17;2.93;;;2.40;99.90;;;;;;5030949;28;20052;-67
2023/12/27 02:52:14;;;;;;;106.97;7.67;;;2.40;99.90;;;;;;5032476;28;20041;-65
2023/12/27 02:54:40;;;;;;;132.30;7.73;;;2.40;99.90;;;;;;5032377;28;20468;-66
2023/12/27 02:57:05;;;;;;;54.87;5.37;;;2.50;99.90;;;;;;5032511;28;20033;-66
2023/12/27 02:59:31;;;;;;;13.33;3.00;;;2.40;99.90;;;;;;5030929;28;20052;-66
2023/12/27 03:01:56;;;;;;;3.63;3.00;;;2.40;99.90;;;;;;5032613;28;20172;-65
2023/12/27 03:04:22;;;;;;;5.13;2.97;;;2.40;99.90;;;;;;5030929;28;20041;-66
2023/12/27 03:06:47;;;;;;;5.93;3.97;;;2.40;99.90;;;;;;5031663;28;20417;-66
2023/12/27 03:09:13;;;;;;;18.40;4.87;;;2.40;99.90;;;;;;5030324;28;20057;-67
2023/12/27 03:11:39;;;;;;;27.07;3.90;;;2.50;99.90;;;;;;5030339;28;20482;-67
2023/12/27 03:14:05;;;;;;;12.17;3.33;;;2.50;99.90;;;;;;5030583;28;20048;-67
2023/12/27 03:16:30;;;;;;;5.75;3.85;;;2.40;99.90;;;;;;5029265;28;20045;-66
2023/12/27 03:18:56;;;;;;;13.27;4.23;;;2.40;99.90;;;;;;5029453;28;20429;-66
2023/12/27 03:21:22;;;;;;;13.20;5.90;;;2.40;99.90;;;;;;5029962;28;20076;-67
2023/12/27 03:23:48;;;;;;;13.20;5.40;;;2.40;99.90;;;;;;5030186;28;20547;-66
2023/12/27 03:26:14;;;;;;;12.43;4.90;;;2.40;99.90;;;;;;5030470;28;20295;-65
2023/12/27 03:28:40;;;;;;;12.57;5.03;;;2.40;99.90;;;;;;5029367;28;20386;-66
2023/12/27 03:31:06;;;;;;;9.77;3.90;;;2.50;99.90;;;;;;5029990;28;20048;-67
2023/12/27 03:33:32;;;;;;;16.02;5.22;;;2.50;99.90;;;;;;5031378;28;20037;-66
2023/12/27 03:35:58;;;;;;;6.00;4.15;;;2.50;99.90;;;;;;5030042;28;20429;-65
2023/12/27 03:38:23;;;;;;;7.93;4.43;;;2.50;99.90;;;;;;5030787;28;20057;-66
2023/12/27 03:40:49;;;;;;;6.22;4.13;;;2.50;99.90;;;;;;5029975;28;20533;-66
2023/12/27 03:43:15;;;;;;;3.90;3.60;;;2.50;99.90;;;;;;5031733;28;20051;-66
2023/12/27 03:45:41;;;;;;;9.97;5.07;;;2.50;99.90;;;;;;5031165;28;20128;-66
2023/12/27 03:48:07;;;;;;;9.57;5.07;;;2.60;99.90;;;;;;5029577;28;20445;-66
2023/12/27 03:50:32;;;;;;;8.57;4.43;;;2.50;99.90;;;;;;5029509;28;20069;-66
2023/12/27 03:52:58;;;;;;;9.90;4.45;;;2.50;99.90;;;;;;5031034;28;20037;-66
2023/12/27 03:55:25;;;;;;;5.80;4.27;;;2.50;99.90;;;;;;5030103;28;20402;-66
2023/12/27 03:57:51;;;;;;;5.88;4.15;;;2.50;99.90;;;;;;5029660;28;20283;-66
2023/12/27 04:00:17;;;;;;;9.02;4.53;;;2.50;99.90;;;;;;5030193;28;20477;-66
2023/12/27 04:02:42;;;;;;;10.20;4.28;;;2.50;99.90;;;;;;5029735;28;20081;-66
2023/12/27 04:05:08;;;;;;;48.77;6.63;;;2.60;99.90;;;;;;5029987;28;20034;-66
2023/12/27 04:07:34;;;;;;;10.38;4.65;;;2.60;99.90;;;;;;5029228;28;20124;-66
2023/12/27 04:10:00;;;;;;;17.27;5.07;;;2.60;99.90;;;;;;5030871;28;20446;-67
2023/12/27 04:12:27;;;;;;;9.10;3.97;;;2.60;99.90;;;;;;5029702;28;20518;-66
2023/12/27 04:14:52;;;;;;;;;;;2.60;99.90;;;;;;5031123;28;20124;-66
2023/12/27 04:17:18;;;;;;;7.05;4.78;;;2.50;99.90;;;;;;5030316;28;20000;-66
2023/12/27 04:19:43;;;;;;;11.50;6.03;;;2.50;99.90;;;;;;5028820;28;20042;-66
2023/12/27 04:22:09;;;;;;;15.53;5.47;;;2.40;99.90;;;;;;5012790;28;20051;-66
2023/12/27 04:24:35;;;;;;;18.13;5.80;;;2.40;99.90;;;;;;5030409;28;20045;-65
2023/12/27 04:27:01;;;;;;;8.23;5.40;;;2.40;99.90;;;;;;5030597;28;20045;-68
2023/12/27 04:29:27;;;;;;;15.77;6.00;;;2.40;99.90;;;;;;5012287;28;20057;-68
2023/12/27 04:31:52;;;;;;;8.47;4.03;;;2.40;99.90;;;;;;5030300;28;20033;-68
2023/12/27 04:34:18;;;;;;;7.33;3.50;;;2.30;99.90;;;;;;5030279;28;20160;-68
2023/12/27 04:36:43;;;;;;;14.00;3.97;;;2.30;99.90;;;;;;5029631;28;20045;-67
2023/12/27 04:39:09;;;;;;;13.87;6.60;;;2.30;99.90;;;;;;5030372;28;20044;-68
2023/12/27 04:41:35;;;;;;;14.27;5.60;;;2.40;99.90;;;;;;5030098;28;20052;-68
2023/12/27 04:44:00;;;;;;;17.10;6.17;;;2.40;99.90;;;;;;5030397;28;20306;-68
2023/12/27 04:46:26;;;;;;;17.58;5.78;;;2.40;99.90;;;;;;5030506;28;20084;-68
2023/12/27 04:48:52;;;;;;;20.77;8.03;;;2.40;99.90;;;;;;5012111;28;20409;-67
2023/12/27 04:51:17;;;;;;;16.10;7.47;;;2.40;99.90;;;;;;5028369;28;20117;-67
2023/12/27 04:53:43;;;;;;;26.33;7.77;;;2.40;99.90;;;;;;5029869;28;20076;-67
2023/12/27 04:56:09;;;;;;;8.52;5.10;;;2.40;99.90;;;;;;5028803;28;20092;-67
2023/12/27 04:58:38;;;;;;;10.93;6.07;;;2.40;99.90;;;;;;5028450;28;20502;-67
2023/12/27 05:01:04;;;;;;;10.70;5.60;;;2.40;99.90;;;;;;5030199;28;20207;-67
2023/12/27 05:03:35;;;;;;;12.25;5.97;;;2.40;99.90;;;;;;5029694;28;20108;-67
2023/12/27 05:06:08;;;;;;;10.65;5.90;;;2.40;99.90;;;;;;5029598;28;20041;-67
2023/12/27 05:08:34;;;;;;;11.80;5.32;;;2.40;99.90;;;;;;5029542;28;20084;-68
2023/12/27 05:11:00;;;;;;;14.10;6.57;;;2.40;99.90;;;;;;5029630;28;20045;-68
2023/12/27 05:13:26;;;;;;;9.98;5.95;;;2.40;99.90;;;;;;5030187;28;20041;-67
2023/12/27 05:15:52;;;;;;;17.98;6.50;;;2.40;99.90;;;;;;5029590;28;20029;-67
2023/12/27 05:18:17;;;;;;;14.93;6.97;;;2.40;99.90;;;;;;5028928;28;20034;-67
2023/12/27 05:20:43;;;;;;;13.53;8.27;;;2.40;99.90;;;;;;5011498;28;20512;-68
2023/12/27 05:23:09;;;;;;;13.57;8.63;;;2.40;99.90;;;;;;5029581;28;20033;-67
2023/12/27 05:25:35;;;;;;;11.40;8.63;;;2.40;99.90;;;;;;5028206;28;20041;-66
2023/12/27 05:28:00;;;;;;;13.57;8.32;;;2.50;99.90;;;;;;5028986;28;20524;-66
2023/12/27 05:30:26;;;;;;;15.83;9.20;;;2.50;99.90;;;;;;5028131;28;20046;-67
2023/12/27 05:32:52;;;;;;;16.63;9.90;;;2.50;99.90;;;;;;5028861;28;20040;-67
2023/12/27 05:35:17;;;;;;;17.87;7.93;;;2.60;99.90;;;;;;5029993;28;20493;-68
2023/12/27 05:37:43;;;;;;;22.80;9.93;;;2.60;99.90;;;;;;5027491;28;20079;-66
2023/12/27 05:40:09;;;;;;;20.63;10.47;;;2.60;99.90;;;;;;5028409;28;20076;-67
2023/12/27 05:42:34;;;;;;;17.20;10.15;;;2.60;99.90;;;;;;5029206;28;20041;-66
2023/12/27 05:45:00;;;;;;;14.45;11.02;;;2.60;99.90;;;;;;5044566;28;20111;-67
2023/12/27 05:47:26;;;;;;;15.85;9.60;;;2.60;99.90;;;;;;5027093;28;20064;-66
2023/12/27 05:49:51;;;;;;;21.30;10.73;;;2.60;99.90;;;;;;5027759;28;20095;-67
2023/12/27 05:52:17;;;;;;;19.10;9.63;;;2.70;99.90;;;;;;5027654;28;20044;-66
2023/12/27 05:54:43;;;;;;;20.93;11.70;;;2.60;99.90;;;;;;5028024;28;20072;-67
2023/12/27 05:57:08;;;;;;;12.37;9.07;;;2.70;99.90;;;;;;5029260;28;20116;-68
2023/12/27 05:59:34;;;;;;;17.73;10.33;;;2.70;99.90;;;;;;5028704;28;20125;-67
2023/12/27 06:02:00;;;;;;;15.45;10.10;;;2.70;99.90;;;;;;5027419;28;20410;-68
2023/12/27 06:04:27;;;;;;;13.73;10.73;;;2.70;99.90;;;;;;5029401;28;20545;-67
2023/12/27 06:06:53;;;;;;;20.15;12.00;;;2.70;99.90;;;;;;5027874;28;20378;-67
2023/12/27 06:09:20;;;;;;;22.77;11.82;;;2.70;99.90;;;;;;5028862;28;20049;-66
2023/12/27 06:11:46;;;;;;;18.02;12.43;;;2.80;99.90;;;;;;5023888;28;20532;-67
2023/12/27 06:14:12;;;;;;;;;;;2.80;99.90;;;;;;5027475;28;20113;-67
2023/12/27 06:16:38;;;;;;;20.90;12.60;;;2.80;99.90;;;;;;5026388;28;19992;-67
2023/12/27 06:19:03;;;;;;;22.80;14.60;;;2.80;99.90;;;;;;5028627;28;20292;-67
2023/12/27 06:21:29;;;;;;;20.97;13.73;;;2.80;99.90;;;;;;5028585;28;20041;-67
2023/12/27 06:23:55;;;;;;;23.83;13.70;;;2.80;99.90;;;;;;5027883;28;20049;-67
2023/12/27 06:26:22;;;;;;;23.20;14.82;;;2.80;99.90;;;;;;5027305;28;20038;-67
2023/12/27 06:28:48;;;;;;;24.52;15.13;;;2.90;99.90;;;;;;5026615;28;20132;-67
2023/12/27 06:31:14;;;;;;;31.15;15.73;;;2.90;99.90;;;;;;5026663;28;20489;-66
2023/12/27 06:33:39;;;;;;;31.55;16.25;;;2.90;99.90;;;;;;5028634;28;20037;-67
2023/12/27 06:36:06;;;;;;;29.70;16.47;;;3.00;99.90;;;;;;5026837;28;20033;-67
2023/12/27 06:38:32;;;;;;;30.15;17.33;;;3.00;99.90;;;;;;5026153;28;20402;-69
2023/12/27 06:40:58;;;;;;;25.83;18.00;;;3.00;99.90;;;;;;5023829;28;20037;-66
2023/12/27 06:43:24;;;;;;;31.83;16.92;;;3.00;99.90;;;;;;5031229;28;20107;-67
2023/12/27 06:45:49;;;;;;;30.83;17.80;;;3.00;99.90;;;;;;5034218;28;20073;-66
2023/12/27 06:48:15;;;;;;;30.30;16.55;;;3.00;99.90;;;;;;5028524;28;20049;-67
2023/12/27 06:50:42;;;;;;;27.23;15.68;;;3.00;99.90;;;;;;5028770;28;20042;-67
2023/12/27 06:53:08;;;;;;;27.63;14.93;;;3.10;99.90;;;;;;5028431;28;20117;-66
2023/12/27 06:55:33;;;;;;;23.40;15.10;;;3.10;99.90;;;;;;5028505;28;20120;-66
2023/12/27 06:57:59;;;;;;;30.23;16.20;;;3.10;99.90;;;;;;5026760;28;20136;-67
2023/12/27 07:00:28;;;;;;;25.23;15.70;;;3.10;99.90;;;;;;5026805;28;20046;-66
2023/12/27 07:02:54;;;;;;;29.83;16.48;;;3.10;99.90;;;;;;5026766;28;20045;-66
2023/12/27 07:05:20;;;;;;;27.33;16.43;;;3.10;99.90;;;;;;5029446;28;20143;-66
2023/12/27 07:07:46;;;;;;;31.47;16.10;;;3.10;99.90;;;;;;5031380;28;20772;-67
2023/12/27 07:10:12;;;;;;;29.42;15.95;;;3.20;99.90;;;;;;5031436;28;20501;-66
2023/12/27 07:12:38;;;;;;;27.73;15.57;;;3.20;99.90;;;;;;5031126;28;20636;-66
2023/12/27 07:15:05;;;;;;;23.88;15.50;;;3.20;99.90;;;;;;5030192;28;20044;-66
2023/12/27 07:17:32;;;;;;;29.88;15.77;;;3.20;99.90;;;;;;5029164;28;20034;-67
2023/12/27 07:19:58;;;;;;;26.52;16.58;;;3.30;99.90;;;;;;5030716;28;20053;-66
2023/12/27 07:22:24;;;;;;;33.13;16.77;;;3.30;99.90;;;;;;5031053;28;20118;-67
2023/12/27 07:24:50;;;;;;;26.13;16.65;;;3.30;99.90;;;;;;5030314;28;20509;-65
2023/12/27 07:27:16;;;;;;;32.83;17.87;;;3.30;99.90;;;;;;5027390;28;20424;-66
2023/12/27 07:29:41;;;;;;;30.03;16.40;;;3.40;99.90;;;;;;5028784;28;20553;-66
2023/12/27 07:32:07;;;;;;;24.17;16.70;;;3.40;99.90;;;;;;5046262;28;20033;-67
2023/12/27 07:34:33;;;;;;;34.45;17.45;;;3.40;99.90;;;;;;5028452;28;20054;-67
2023/12/27 07:36:59;;;;;;;38.28;17.20;;;3.50;99.90;;;;;;5022533;28;20029;-65
2023/12/27 07:39:25;;;;;;;23.80;16.38;;;3.50;99.90;;;;;;5027567;28;20419;-66
2023/12/27 07:41:50;;;;;;;28.40;16.13;;;3.50;99.90;;;;;;5020660;28;20048;-65
2023/12/27 07:44:16;;;;;;;29.23;16.33;;;3.60;99.90;;;;;;5030965;28;20048;-66
2023/12/27 07:46:43;;;;;;;26.30;16.25;;;3.60;99.90;;;;;;5031254;28;20041;-68
2023/12/27 07:49:08;;;;;;;25.95;16.77;;;3.60;99.90;;;;;;5031262;28;20045;-65
2023/12/27 07:51:34;;;;;;;28.17;15.60;;;3.60;99.90;;;;;;5030984;28;20060;-67
2023/12/27 07:54:00;;;;;;;30.77;16.10;;;3.70;99.90;;;;;;5029433;28;20037;-67
2023/12/27 07:56:26;;;;;;;26.25;15.15;;;3.70;99.90;;;;;;5029969;28;20277;-67
2023/12/27 07:58:53;;;;;;;28.17;14.88;;;3.70;99.90;;;;;;5029109;28;20481;-67
2023/12/27 08:01:20;;;;;;;34.15;15.52;;;3.70;99.90;;;;;;5029731;28;20045;-67
2023/12/27 08:03:46;;;;;;;25.55;15.32;;;3.70;99.90;;;;;;5029852;28;20041;-67
2023/12/27 08:06:12;;;;;;;26.63;15.17;;;3.70;99.90;;;;;;5030903;28;20390;-67
2023/12/27 08:08:38;;;;;;;29.33;16.98;;;3.80;99.90;;;;;;5030085;28;20527;-66
2023/12/27 08:11:03;;;;;;;23.85;14.52;;;3.80;99.90;;;;;;5027334;28;20033;-68
2023/12/27 08:13:31;;;;;;;26.10;14.02;;;3.80;99.90;;;;;;5035127;28;20034;-67
2023/12/27 08:15:57;;;;;;;29.33;14.95;;;3.80;99.90;;;;;;5026476;28;20037;-66
2023/12/27 08:18:23;;;;;;;25.85;14.63;;;3.90;99.90;;;;;;5021360;28;20034;-66
2023/12/27 08:20:48;;;;;;;29.73;15.20;;;3.90;99.90;;;;;;5023925;28;20564;-68
2023/12/27 08:23:16;;;;;;;30.48;15.68;;;3.90;99.90;;;;;;5029999;28;20430;-68
2023/12/27 08:25:43;;;;;;;29.88;14.63;;;4.00;99.90;;;;;;5027252;28;20033;-68
2023/12/27 08:28:09;;;;;;;29.55;17.95;;;4.00;99.90;;;;;;5027208;28;20045;-66
2023/12/27 08:30:35;;;;;;;28.23;18.90;;;4.00;99.90;;;;;;5029448;28;20513;-67
2023/12/27 08:33:01;;;;;;;26.95;17.52;;;4.00;99.90;;;;;;5012605;28;20037;-66
2023/12/27 08:35:27;;;;;;;33.70;17.98;;;4.10;99.90;;;;;;5012873;28;20077;-66
2023/12/27 08:37:52;;;;;;;31.57;17.80;;;4.10;99.90;;;;;;5028508;28;20083;-67
2023/12/27 08:40:22;;;;;;;34.00;18.77;;;4.10;99.90;;;;;;5029978;28;20524;-68
2023/12/27 08:42:48;;;;;;;30.73;18.02;;;4.10;99.90;;;;;;4995664;28;20401;-67
2023/12/27 08:45:14;;;;;;;38.87;18.37;;;4.10;99.90;;;;;;5012553;28;20041;-66
2023/12/27 08:47:41;;;;;;;25.70;16.23;;;4.20;99.90;;;;;;5029897;28;20493;-67
2023/12/27 08:50:06;;;;;;;;;;;4.20;99.90;;;;;;5029619;28;20069;-67
2023/12/27 08:52:32;;;;;;;29.48;16.88;;;4.20;99.90;;;;;;5028608;28;19960;-66
2023/12/27 08:54:58;;;;;;;35.63;19.05;;;4.30;99.90;;;;;;5029503;28;20455;-67
2023/12/27 08:57:24;;;;;;;30.50;17.67;;;4.30;99.90;;;;;;5029789;28;20025;-66
2023/12/27 08:59:50;;;;;;;26.75;17.55;;;4.30;99.90;;;;;;5028367;28;20045;-67
2023/12/27 09:02:15;;;;;;;39.13;19.53;;;4.30;99.90;;;;;;5028763;28;20080;-67
2023/12/27 09:04:41;;;;;;;36.47;20.20;;;4.30;99.90;;;;;;5028581;28;20517;-67
2023/12/27 09:07:06;;;;;;;38.97;20.13;;;4.30;99.90;;;;;;5028486;28;20044;-66
2023/12/27 09:09:32;;;;;;;29.20;19.97;;;4.30;99.90;;;;;;5029412;28;20548;-67
2023/12/27 09:11:58;;;;;;;31.73;20.17;;;4.40;99.90;;;;;;5027727;28;20160;-67
2023/12/27 09:14:24;;;;;;;35.00;19.63;;;4.40;99.90;;;;;;5025941;28;20061;-67
2023/12/27 09:16:49;;;;;;;30.75;18.58;;;4.40;99.90;;;;;;5026180;28;20118;-67
2023/12/27 09:19:16;;;;;;;31.67;17.60;;;4.40;99.90;;;;;;5020647;28;20617;-68
2023/12/27 09:21:42;;;;;;;;;;;4.40;99.90;;;;;;5026026;28;20132;-65
2023/12/27 09:24:08;;;;;;;40.38;18.10;;;4.50;99.90;;;;;;5027752;28;19917;-66
2023/12/27 09:26:33;;;;;;;40.10;19.25;;;4.50;99.90;;;;;;5021488;28;20505;-67
2023/12/27 09:28:59;;;;;;;36.03;17.30;;;4.60;99.90;;;;;;5026152;28;20053;-66
2023/12/27 09:31:29;;;;;;;33.80;20.17;;;4.60;99.90;;;;;;5020981;28;20048;-66
2023/12/27 09:33:59;;;;;;;33.05;17.33;;;4.60;99.90;;;;;;5027900;28;20122;-66
2023/12/27 09:36:25;;;;;;;37.65;17.63;;;4.70;99.90;;;;;;5028626;28;20052;-66
2023/12/27 09:38:51;;;;;;;33.28;17.08;;;4.70;99.90;;;;;;5029433;28;20041;-66
2023/12/27 09:41:17;;;;;;;29.73;16.13;;;4.70;99.90;;;;;;5027700;28;20037;-66
2023/12/27 09:43:45;;;;;;;29.50;16.13;;;4.70;99.90;;;;;;5020324;28;20033;-66
2023/12/27 09:46:13;;;;;;;33.35;19.27;;;4.80;99.90;;;;;;5023251;28;20092;-66
2023/12/27 09:48:41;;;;;;;28.05;15.82;;;4.80;99.90;;;;;;5025143;28;20466;-66
2023/12/27 09:51:07;;;;;;;33.03;16.58;;;4.80;99.90;;;;;;5026151;28;20037;-67
2023/12/27 09:53:33;;;;;;;33.45;16.00;;;4.80;99.90;;;;;;5026379;28;20052;-64
2023/12/27 09:55:59;;;;;;;26.90;15.60;;;4.90;99.90;;;;;;5027759;28;20033;-66
2023/12/27 09:58:27;;;;;;;;;;;4.90;99.90;;;;;;5027335;28;20095;-66
2023/12/27 10:00:55;;;;;;;;;;;4.90;99.90;;;;;;5026770;28;19924;-65
2023/12/27 10:03:35;;;;;;;20.67;14.07;;;4.90;99.90;;;;;;5025811;28;19967;-66
2023/12/27 10:06:25;;;;;;;25.48;14.85;;;5.00;99.90;;;;;;5026320;28;20091;-66
2023/12/27 10:08:51;;;;;;;31.67;15.30;;;5.00;99.90;;;;;;5026912;28;20037;-65
2023/12/27 10:11:18;;;;;;;33.38;16.80;;;5.00;99.90;;;;;;5027502;28;20501;-65
2023/12/27 10:13:46;;;;;;;30.70;15.82;;;5.00;99.90;;;;;;5026361;28;20025;-65
2023/12/27 10:16:12;;;;;;;29.08;16.25;;;5.00;99.90;;;;;;5026976;28;20466;-65
2023/12/27 10:18:38;;;;;;;37.10;17.13;;;5.00;99.90;;;;;;5026783;28;20068;-65
2023/12/27 10:21:04;;;;;;;25.40;16.30;;;5.00;99.90;;;;;;5023337;28;20125;-65
2023/12/27 10:23:33;;;;;;;25.58;15.15;;;5.00;99.90;;;;;;5023928;28;20133;-65
2023/12/27 10:25:59;;;;;;;35.88;17.10;;;5.00;99.90;;;;;;5025380;28;20045;-67
2023/12/27 10:28:25;;;;;;;42.63;17.60;;;5.00;99.90;;;;;;5025689;28;20091;-65
2023/12/27 10:30:51;;;;;;;31.60;16.45;;;5.10;99.90;;;;;;5025416;28;20038;-65
2023/12/27 10:33:19;;;;;;;31.02;16.13;;;5.10;99.90;;;;;;5024839;28;20045;-66
2023/12/27 10:35:45;;;;;;;34.92;16.42;;;5.00;99.90;;;;;;5027092;28;20041;-65
2023/12/27 10:38:11;;;;;;;34.67;17.77;;;5.10;99.90;;;;;;5025954;28;20552;-66
2023/12/27 10:40:39;;;;;;;37.40;17.17;;;5.10;99.90;;;;;;5028972;28;20041;-66
2023/12/27 10:43:05;;;;;;;29.15;15.20;;;5.10;99.90;;;;;;5027557;28;20128;-66
2023/12/27 10:45:32;;;;;;;32.85;16.73;;;5.10;99.90;;;;;;5027401;28;20141;-66
2023/12/27 10:47:59;;;;;;;38.08;16.88;;;5.10;99.90;;;;;;5030074;28;20029;-67
2023/12/27 10:50:27;;;;;;;31.65;17.35;;;5.10;99.90;;;;;;5027548;28;20091;-66
2023/12/27 10:53:03;;;;;;;28.35;16.40;;;5.10;99.90;;;;;;5030829;28;20048;-67
2023/12/27 10:55:31;;;;;;;41.40;18.03;;;5.10;99.90;;;;;;5029477;28;20041;-65
2023/12/27 10:57:59;;;;;;;30.42;17.73;;;5.10;99.90;;;;;;5029759;28;20033;-65
2023/12/27 11:00:25;;;;;;;27.95;18.33;;;5.10;99.90;;;;;;5028543;28;20054;-65
2023/12/27 11:02:51;;;;;;;39.85;18.80;;;5.20;99.90;;;;;;5029430;28;20116;-65
2023/12/27 11:05:19;;;;;;;36.55;20.23;;;5.20;99.90;;;;;;5028016;28;20573;-66
2023/12/27 11:07:46;;;;;;;38.83;21.10;;;5.20;99.90;;;;;;5028580;28;20497;-66
2023/12/27 11:10:15;;;;;;;;;;;5.20;99.90;;;;;;5030982;28;20502;-66
2023/12/27 11:12:44;;;;;;;38.58;20.77;;;5.20;99.90;;;;;;5028856;28;19925;-66
2023/12/27 11:15:12;;;;;;;41.22;22.00;;;5.20;99.90;;;;;;5029075;28;20521;-66
2023/12/27 11:17:39;;;;;;;42.67;21.90;;;5.20;99.90;;;;;;5029418;28;20491;-66
2023/12/27 11:20:10;;;;;;;40.53;22.50;;;5.20;99.90;;;;;;5027714;28;20045;-66
2023/12/27 11:22:37;;;;;;;40.92;22.00;;;5.20;99.90;;;;;;5026763;28;20497;-66
2023/12/27 11:25:03;;;;;;;;;;;5.20;99.90;;;;;;5028779;28;20045;-66
2023/12/27 11:27:30;;;;;;;44.25;23.13;;;5.20;99.90;;;;;;5026431;28;19917;-66
2023/12/27 11:29:55;;;;;;;41.58;22.08;;;5.20;99.90;;;;;;5028645;28;20045;-66
2023/12/27 11:32:21;;;;;;;39.27;23.20;;;5.20;99.90;;;;;;5025845;28;20489;-66
2023/12/27 11:34:47;;;;;;;41.80;23.43;;;5.20;99.90;;;;;;5028710;28;20040;-66
2023/12/27 11:37:16;;;;;;;42.73;23.73;;;5.20;99.90;;;;;;5027847;28;20460;-66
2023/12/27 11:39:48;;;;;;;48.53;23.92;;;5.30;99.90;;;;;;5028302;28;20308;-66
2023/12/27 11:42:17;;;;;;;42.85;24.55;;;5.30;99.90;;;;;;5028393;28;20128;-66
2023/12/27 11:44:56;;;;;;;47.70;24.70;;;5.30;99.90;;;;;;5022162;28;20406;-66
2023/12/27 11:47:22;;;;;;;46.67;24.65;;;5.30;99.90;;;;;;5026763;28;20041;-66
2023/12/27 11:50:13;;;;;;;49.58;22.90;;;5.40;99.90;;;;;;5025036;28;20576;-66
2023/12/27 11:52:45;;;;;;;42.45;22.85;;;5.40;99.90;;;;;;5029347;28;20073;-66
2023/12/27 11:55:19;;;;;;;47.55;24.38;;;5.40;99.90;;;;;;5027480;28;20033;-67
2023/12/27 11:57:45;;;;;;;35.10;23.13;;;5.40;99.90;;;;;;5021269;28;20584;-66
2023/12/27 12:00:24;;;;;;;37.88;22.92;;;5.50;99.90;;;;;;5020116;28;20646;-66
2023/12/27 12:02:57;;;;;;;37.90;22.75;;;5.50;99.90;;;;;;5006447;28;20033;-65
2023/12/27 12:05:48;;;;;;;38.25;22.60;;;5.50;99.90;;;;;;5030169;28;20498;-67
2023/12/27 12:08:41;;;;;;;42.28;23.08;;;5.50;99.90;;;;;;5025323;28;20308;-67
2023/12/27 12:11:10;;;;;;;35.38;22.15;;;5.60;99.90;;;;;;5028480;28;20053;-66
2023/12/27 12:13:38;;;;;;;42.13;23.33;;;5.60;99.90;;;;;;5030724;28;20056;-67
2023/12/27 12:16:05;;;;;;;46.95;24.95;;;5.70;99.90;;;;;;5030833;28;20117;-65
2023/12/27 12:18:33;;;;;;;39.22;24.05;;;5.70;99.90;;;;;;5031003;28;20431;-67
2023/12/27 12:20:59;;;;;;;41.22;23.83;;;5.70;99.90;;;;;;5035990;28;20033;-65
2023/12/27 12:23:24;;;;;;;38.00;24.25;;;5.80;99.90;;;;;;5034878;28;20095;-66
2023/12/27 12:25:50;;;;;;;41.20;23.47;;;5.80;99.90;;;;;;5028996;28;20049;-66
2023/12/27 12:28:16;;;;;;;35.63;22.27;;;5.80;99.90;;;;;;5028861;28;20049;-66
2023/12/27 12:30:46;;;;;;;38.23;23.20;;;5.90;99.90;;;;;;5030362;28;20057;-67
2023/12/27 12:33:12;;;;;;;36.78;22.95;;;5.90;99.90;;;;;;5029401;28;20063;-66
2023/12/27 12:35:39;;;;;;;39.28;22.45;;;5.90;99.90;;;;;;5020012;28;20037;-65
2023/12/27 12:38:05;;;;;;;42.15;24.73;;;6.00;99.90;;;;;;5028357;28;20056;-66
2023/12/27 12:40:31;;;;;;;37.22;24.15;;;6.00;99.90;;;;;;5025623;28;20100;-66
2023/12/27 12:42:57;;;;;;;40.53;24.38;;;6.00;99.90;;;;;;5029219;28;20041;-66